Time;durP1;ratioP1;P1;durP2;ratioP2;P2;SDS_P1;SDS_P2;PMS_P1;PMS_P2;Temp;Humidity;BMP_temperature;BMP_pressure;BME280_temperature;BME280_humidity;BME280_pressure;Samples;Min_cycle;Max_cycle;Signal;HPM_P1;HPM_P2
2022/05/04 00:02:19;;;;;;;16.10;13.85;;;12.40;99.90;;;;;;5097141;28;20024;-76
2022/05/04 00:04:44;;;;;;;14.18;12.18;;;12.40;99.90;;;;;;5096821;28;20028;-76
2022/05/04 00:07:10;;;;;;;16.63;12.30;;;12.40;99.90;;;;;;5095752;28;20051;-76
2022/05/04 00:09:36;;;;;;;16.42;11.48;;;12.40;99.90;;;;;;5095740;28;20484;-76
2022/05/04 00:12:02;;;;;;;12.93;11.13;;;12.50;99.90;;;;;;5096617;28;20032;-76
2022/05/04 00:14:29;;;;;;;14.90;10.65;;;12.50;99.90;;;;;;5097115;28;20024;-76
2022/05/04 00:16:55;;;;;;;11.50;9.38;;;12.50;99.90;;;;;;5083466;28;20099;-75
2022/05/04 00:19:21;;;;;;;12.02;8.80;;;12.50;99.90;;;;;;5097173;28;20051;-75
2022/05/04 00:21:47;;;;;;;9.13;8.02;;;12.50;99.90;;;;;;5096900;28;20035;-76
2022/05/04 00:24:12;;;;;;;13.38;8.68;;;12.50;99.90;;;;;;5097061;28;20039;-75
2022/05/04 00:26:38;;;;;;;8.98;7.55;;;12.50;99.90;;;;;;5096930;28;20026;-74
2022/05/04 00:29:04;;;;;;;10.35;8.15;;;12.60;99.90;;;;;;5096905;28;20078;-75
2022/05/04 00:31:30;;;;;;;8.57;7.32;;;12.60;99.90;;;;;;5096836;28;20020;-75
2022/05/04 00:33:56;;;;;;;11.95;7.82;;;12.60;99.90;;;;;;5096986;28;20460;-75
2022/05/04 00:36:22;;;;;;;10.18;7.88;;;12.60;99.90;;;;;;5096833;28;20027;-75
2022/05/04 00:38:47;;;;;;;10.35;7.65;;;12.60;99.90;;;;;;5095673;28;20059;-75
2022/05/04 00:41:13;;;;;;;8.85;7.20;;;12.60;99.90;;;;;;5095223;28;20031;-75
2022/05/04 00:43:39;;;;;;;7.75;7.05;;;12.60;99.90;;;;;;5095812;28;20081;-75
2022/05/04 00:46:05;;;;;;;11.23;7.75;;;12.60;99.90;;;;;;5095049;28;20181;-75
2022/05/04 00:48:31;;;;;;;12.82;8.07;;;12.60;99.90;;;;;;5097172;28;20028;-75
2022/05/04 00:50:56;;;;;;;12.00;8.77;;;12.50;99.90;;;;;;5096670;28;20111;-75
2022/05/04 00:53:23;;;;;;;8.60;7.70;;;12.50;99.90;;;;;;5095450;28;20024;-75
2022/05/04 00:55:50;;;;;;;10.35;9.00;;;12.40;99.90;;;;;;5094999;28;20496;-75
2022/05/04 01:01:02;;;;;;;9.73;8.07;;;12.30;99.90;;;;;;5096503;28;20057;-75
2022/05/04 01:03:28;;;;;;;10.75;8.00;;;12.20;99.90;;;;;;5096634;28;20028;-75
2022/05/04 01:05:54;;;;;;;10.40;8.77;;;12.10;99.90;;;;;;5095357;28;20046;-75
2022/05/04 01:08:20;;;;;;;12.68;9.20;;;12.10;99.90;;;;;;5096511;28;20032;-75
2022/05/04 01:10:46;;;;;;;21.75;9.07;;;12.00;99.90;;;;;;5096431;28;20064;-76
2022/05/04 01:13:12;;;;;;;9.77;8.50;;;12.00;99.90;;;;;;5096427;28;20024;-75
2022/05/04 01:15:37;;;;;;;12.05;8.68;;;12.00;99.90;;;;;;5088970;28;20472;-75
2022/05/04 01:18:03;;;;;;;17.38;10.23;;;12.00;99.90;;;;;;5083091;28;20052;-75
2022/05/04 01:20:29;;;;;;;11.70;9.65;;;11.90;99.90;;;;;;5098829;28;20013;-75
2022/05/04 01:22:55;;;;;;;13.05;9.05;;;11.90;99.90;;;;;;5100098;28;20028;-75
2022/05/04 01:25:21;;;;;;;14.80;10.65;;;11.90;99.90;;;;;;5099914;28;20023;-75
2022/05/04 01:27:47;;;;;;;12.55;9.35;;;11.90;99.90;;;;;;5098658;28;20480;-75
2022/05/04 01:30:13;;;;;;;12.70;9.45;;;11.90;99.90;;;;;;5100033;28;20128;-75
2022/05/04 01:32:39;;;;;;;14.82;10.77;;;11.90;99.90;;;;;;5098437;28;20119;-75
2022/05/04 01:35:05;;;;;;;11.40;9.27;;;11.90;99.90;;;;;;5099990;28;20065;-75
2022/05/04 01:37:31;;;;;;;11.48;9.52;;;11.90;99.90;;;;;;5099752;28;20028;-75
2022/05/04 01:39:57;;;;;;;13.18;9.57;;;11.90;99.90;;;;;;5099961;28;20024;-75
2022/05/04 01:42:24;;;;;;;11.63;9.05;;;11.90;99.90;;;;;;5098209;28;20028;-75
2022/05/04 01:44:51;;;;;;;11.68;9.38;;;12.00;99.90;;;;;;5099564;28;20036;-75
2022/05/04 01:47:17;;;;;;;14.32;8.95;;;11.90;99.90;;;;;;5098058;28;20036;-75
2022/05/04 01:49:43;;;;;;;13.77;9.07;;;12.00;99.90;;;;;;5081342;28;20087;-74
2022/05/04 01:52:09;;;;;;;13.32;9.35;;;12.00;99.90;;;;;;5099397;28;20032;-75
2022/05/04 01:54:35;;;;;;;14.75;10.30;;;11.90;99.90;;;;;;5099605;28;20024;-76
2022/05/04 01:57:00;;;;;;;11.70;8.88;;;11.90;99.90;;;;;;5099170;28;20028;-75
2022/05/04 01:59:26;;;;;;;11.88;8.57;;;11.90;99.90;;;;;;5098050;28;20115;-75
2022/05/04 02:01:52;;;;;;;11.32;9.55;;;11.90;99.90;;;;;;5098030;28;20020;-75
2022/05/04 02:04:19;;;;;;;13.63;9.90;;;11.80;99.90;;;;;;5098386;28;20130;-75
2022/05/04 02:06:46;;;;;;;13.07;9.32;;;11.80;99.90;;;;;;5099271;28;20028;-75
2022/05/04 02:09:11;;;;;;;12.07;9.20;;;11.90;99.90;;;;;;5098030;28;20058;-75
2022/05/04 02:11:37;;;;;;;14.38;9.95;;;11.90;99.90;;;;;;5098656;28;20036;-75
2022/05/04 02:14:04;;;;;;;15.50;10.23;;;11.90;99.90;;;;;;5097746;28;20062;-75
2022/05/04 02:16:30;;;;;;;12.50;10.13;;;12.00;99.90;;;;;;5084114;28;20085;-75
2022/05/04 02:18:57;;;;;;;14.10;10.68;;;12.00;99.90;;;;;;5099405;28;20058;-76
2022/05/04 02:21:23;;;;;;;15.43;10.65;;;12.10;99.90;;;;;;5098856;28;20124;-75
2022/05/04 02:23:49;;;;;;;12.35;10.77;;;12.20;99.90;;;;;;5098948;28;20058;-75
2022/05/04 02:26:15;;;;;;;14.10;11.07;;;12.30;99.90;;;;;;5097014;28;20032;-76
2022/05/04 02:28:43;;;;;;;12.85;10.30;;;12.30;99.90;;;;;;5098493;28;20527;-76
2022/05/04 02:31:09;;;;;;;12.00;10.70;;;12.40;99.90;;;;;;5090043;28;20078;-76
2022/05/04 02:33:35;;;;;;;16.27;11.57;;;12.40;99.90;;;;;;5097463;28;20026;-76
2022/05/04 02:38:46;;;;;;;14.60;11.75;;;12.50;99.90;;;;;;5098643;28;20047;-76
2022/05/04 02:41:12;;;;;;;13.18;11.60;;;12.60;99.90;;;;;;5098307;28;20020;-76
2022/05/04 02:43:37;;;;;;;14.25;11.95;;;12.60;99.90;;;;;;5098682;28;20032;-76
2022/05/04 02:46:17;;;;;;;14.70;11.45;;;12.70;99.90;;;;;;5096902;28;20059;-75
2022/05/04 02:48:44;;;;;;;13.50;11.70;;;12.70;99.90;;;;;;5097468;28;20042;-75
2022/05/04 02:51:09;;;;;;;12.43;11.13;;;12.70;99.90;;;;;;5098471;28;20047;-75
2022/05/04 02:53:35;;;;;;;15.07;10.45;;;12.70;99.90;;;;;;5097090;28;20365;-75
2022/05/04 02:56:01;;;;;;;16.80;10.55;;;12.70;99.90;;;;;;5097926;28;20020;-76
2022/05/04 02:58:28;;;;;;;14.45;12.50;;;12.70;99.90;;;;;;5097281;28;20161;-76
2022/05/04 03:00:54;;;;;;;16.60;12.30;;;12.80;99.90;;;;;;5090578;28;20060;-76
2022/05/04 03:03:20;;;;;;;14.80;11.65;;;12.80;99.90;;;;;;5089778;28;20027;-76
2022/05/04 03:05:46;;;;;;;13.90;11.73;;;12.80;99.90;;;;;;5098035;28;20050;-76
2022/05/04 03:08:11;;;;;;;15.20;12.13;;;12.80;99.90;;;;;;5096819;28;20028;-75
2022/05/04 03:13:22;;;;;;;14.45;12.88;;;12.90;99.90;;;;;;5097925;28;20065;-76
2022/05/04 03:15:48;;;;;;;13.25;11.95;;;12.90;99.90;;;;;;5087759;28;20013;-76
2022/05/04 03:18:14;;;;;;;13.95;12.27;;;12.90;99.90;;;;;;5093263;28;20035;-76
2022/05/04 03:20:39;;;;;;;15.65;12.20;;;12.90;99.90;;;;;;5096688;28;20551;-76
2022/05/04 03:23:05;;;;;;;19.05;12.68;;;12.90;99.90;;;;;;5097739;28;20128;-76
2022/05/04 03:25:31;;;;;;;15.93;12.00;;;12.90;99.90;;;;;;5097759;28;20019;-77
2022/05/04 03:27:57;;;;;;;18.50;12.48;;;12.90;99.90;;;;;;5097715;28;20024;-77
2022/05/04 03:30:23;;;;;;;15.52;13.43;;;12.90;99.90;;;;;;5097755;28;20034;-76
2022/05/04 03:32:49;;;;;;;13.88;12.48;;;12.90;99.90;;;;;;5096218;28;20411;-77
2022/05/04 03:35:14;;;;;;;15.80;13.48;;;12.90;99.90;;;;;;5097866;28;20016;-76
2022/05/04 03:37:40;;;;;;;16.27;12.85;;;12.90;99.90;;;;;;5081625;28;20605;-76
2022/05/04 03:40:08;;;;;;;15.35;12.88;;;12.90;99.90;;;;;;5097073;28;20016;-76
2022/05/04 03:42:34;;;;;;;29.75;16.60;;;12.90;99.90;;;;;;5097214;28;20074;-76
2022/05/04 03:44:59;;;;;;;16.90;15.10;;;12.90;99.90;;;;;;5097304;28;20044;-76
2022/05/04 03:47:25;;;;;;;23.48;16.70;;;12.90;99.90;;;;;;5097342;28;20031;-76
2022/05/04 03:49:51;;;;;;;19.10;15.98;;;12.90;99.90;;;;;;5097485;28;20024;-76
2022/05/04 03:52:17;;;;;;;19.42;15.07;;;12.90;99.90;;;;;;5096001;28;20515;-76
2022/05/04 03:54:43;;;;;;;26.40;17.85;;;12.90;99.90;;;;;;5097439;28;20016;-76
2022/05/04 03:57:08;;;;;;;24.52;17.95;;;12.90;99.90;;;;;;5095704;28;20025;-76
2022/05/04 03:59:34;;;;;;;23.55;18.58;;;13.00;99.90;;;;;;5097199;28;20016;-76
2022/05/04 04:02:00;;;;;;;24.60;19.50;;;12.90;99.90;;;;;;5097150;28;20070;-76
2022/05/04 04:04:26;;;;;;;23.23;17.73;;;13.00;99.90;;;;;;5096456;28;20103;-75
2022/05/04 04:06:52;;;;;;;27.27;19.85;;;13.00;99.90;;;;;;5097150;28;20024;-76
2022/05/04 04:09:17;;;;;;;23.00;20.25;;;12.90;99.90;;;;;;5097308;28;20099;-77
2022/05/04 04:11:43;;;;;;;26.70;21.63;;;12.90;99.90;;;;;;5096696;28;20039;-76
2022/05/04 04:14:09;;;;;;;25.48;19.85;;;12.90;99.90;;;;;;5097500;28;20046;-76
2022/05/04 04:16:35;;;;;;;24.25;19.70;;;12.90;99.90;;;;;;5083182;28;20017;-76
2022/05/04 04:19:01;;;;;;;26.75;19.35;;;13.00;99.90;;;;;;5097457;28;20095;-76
2022/05/04 04:24:11;;;;;;;22.13;17.02;;;13.00;99.90;;;;;;5097105;28;20031;-76
2022/05/04 04:26:38;;;;;;;27.35;19.13;;;12.90;99.90;;;;;;5095624;28;20028;-76
2022/05/04 04:29:04;;;;;;;29.88;19.77;;;13.00;99.90;;;;;;5095810;28;20112;-76
2022/05/04 04:31:30;;;;;;;24.65;18.75;;;12.90;99.90;;;;;;5095811;28;20024;-76
2022/05/04 04:33:56;;;;;;;24.42;17.92;;;13.00;99.90;;;;;;5097160;28;20020;-76
2022/05/04 04:36:22;;;;;;;20.48;18.10;;;13.00;99.90;;;;;;5095459;28;20054;-76
2022/05/04 04:38:48;;;;;;;22.02;19.55;;;13.00;99.90;;;;;;5095739;28;20027;-76
2022/05/04 04:41:14;;;;;;;22.15;19.83;;;13.00;99.90;;;;;;5096933;28;20392;-76
2022/05/04 04:43:40;;;;;;;30.77;23.15;;;13.00;99.90;;;;;;5095553;28;20020;-76
2022/05/04 04:46:06;;;;;;;27.45;22.52;;;13.00;99.90;;;;;;5096550;28;20504;-76
2022/05/04 04:48:32;;;;;;;30.58;23.40;;;13.00;99.90;;;;;;5096882;28;20054;-76
2022/05/04 04:50:58;;;;;;;27.05;24.13;;;13.00;99.90;;;;;;5095983;28;20032;-76
2022/05/04 04:53:24;;;;;;;29.70;24.73;;;13.10;99.90;;;;;;5099447;28;20032;-76
2022/05/04 04:55:50;;;;;;;37.72;28.30;;;13.10;99.90;;;;;;5100341;28;20480;-76
2022/05/04 04:58:16;;;;;;;42.72;29.98;;;13.10;99.90;;;;;;5100779;28;20024;-76
2022/05/04 05:00:42;;;;;;;44.22;30.77;;;13.10;99.90;;;;;;5100256;28;20028;-76
2022/05/04 05:03:08;;;;;;;43.40;32.25;;;13.10;99.90;;;;;;5099306;28;20024;-76
2022/05/04 05:05:34;;;;;;;38.80;32.72;;;13.10;99.90;;;;;;5095773;28;20475;-77
2022/05/04 05:08:00;;;;;;;45.28;32.22;;;13.10;99.90;;;;;;5100524;28;20400;-76
2022/05/04 05:10:25;;;;;;;42.30;33.90;;;13.10;99.90;;;;;;5100115;28;20026;-76
2022/05/04 05:12:51;;;;;;;57.70;32.55;;;13.10;99.90;;;;;;5098965;28;20059;-76
2022/05/04 05:18:03;;;;;;;41.60;31.42;;;13.10;99.90;;;;;;5094089;28;20545;-76
2022/05/04 05:20:30;;;;;;;42.63;32.80;;;13.20;99.90;;;;;;5100291;28;20020;-76
2022/05/04 05:22:57;;;;;;;51.35;34.08;;;13.10;99.90;;;;;;5098821;28;20031;-76
2022/05/04 05:25:23;;;;;;;48.13;33.30;;;13.20;99.90;;;;;;5098535;28;20032;-76
2022/05/04 05:27:49;;;;;;;45.55;36.03;;;13.20;99.90;;;;;;5099853;28;20032;-77
2022/05/04 05:30:14;;;;;;;42.80;33.15;;;13.20;99.90;;;;;;5098813;28;20391;-76
2022/05/04 05:32:40;;;;;;;45.03;34.50;;;13.20;99.90;;;;;;5099757;28;20048;-76
2022/05/04 05:35:07;;;;;;;47.38;32.65;;;13.20;99.90;;;;;;5094234;28;20028;-77
2022/05/04 05:37:33;;;;;;;48.50;35.70;;;13.20;99.90;;;;;;5099659;28;20020;-77
2022/05/04 05:39:58;;;;;;;48.13;34.03;;;13.30;99.90;;;;;;5099935;28;20031;-77
2022/05/04 05:42:24;;;;;;;44.42;34.28;;;13.30;99.90;;;;;;5099219;28;20020;-77
2022/05/04 05:44:50;;;;;;;50.38;36.20;;;13.30;99.90;;;;;;5099529;28;20052;-76
2022/05/04 05:47:17;;;;;;;47.55;34.78;;;13.30;99.90;;;;;;5099588;28;20024;-77
2022/05/04 05:49:42;;;;;;;44.95;33.60;;;13.30;99.90;;;;;;5099586;28;20028;-76
2022/05/04 05:52:09;;;;;;;40.83;33.90;;;13.30;99.90;;;;;;5099591;28;20031;-76
2022/05/04 05:54:35;;;;;;;49.05;36.20;;;13.30;99.90;;;;;;5099699;28;20062;-76
2022/05/04 05:57:01;;;;;;;48.10;33.78;;;13.30;99.90;;;;;;5099124;28;20488;-76
2022/05/04 05:59:27;;;;;;;44.85;35.47;;;13.40;99.90;;;;;;5099453;28;20028;-76
2022/05/04 06:01:53;;;;;;;46.65;35.15;;;13.30;99.90;;;;;;5097876;28;20017;-76
2022/05/04 06:04:19;;;;;;;44.70;34.25;;;13.40;99.90;;;;;;5097455;28;20036;-76
2022/05/04 06:06:46;;;;;;;41.95;33.50;;;13.40;99.90;;;;;;5097911;28;20020;-76
2022/05/04 06:09:12;;;;;;;50.33;34.45;;;13.40;99.90;;;;;;5099496;28;20020;-76
2022/05/04 06:11:37;;;;;;;44.05;34.35;;;13.40;99.90;;;;;;5088502;28;20029;-76
2022/05/04 06:14:03;;;;;;;45.03;33.80;;;13.40;99.90;;;;;;5099106;28;20031;-75
2022/05/04 06:16:29;;;;;;;43.05;34.13;;;13.40;99.90;;;;;;5077810;28;20025;-75
2022/05/04 06:18:55;;;;;;;50.17;35.80;;;13.40;99.90;;;;;;5099267;28;20032;-76
2022/05/04 06:21:21;;;;;;;51.08;35.42;;;13.40;99.90;;;;;;5098856;28;20024;-76
2022/05/04 06:23:47;;;;;;;44.45;34.78;;;13.40;99.90;;;;;;5091089;28;20033;-76
2022/05/04 06:26:13;;;;;;;50.22;33.50;;;13.40;99.90;;;;;;5081005;28;20021;-76
2022/05/04 06:28:39;;;;;;;44.88;33.47;;;13.40;99.90;;;;;;5086284;28;20031;-75
2022/05/04 06:34:07;;;;;;;40.67;32.92;;;13.50;99.90;;;;;;5067044;28;20055;-75
2022/05/04 06:36:35;;;;;;;47.15;34.70;;;13.50;99.90;;;;;;5082259;28;20017;-75
2022/05/04 06:39:01;;;;;;;47.63;35.53;;;13.50;99.90;;;;;;5091821;28;20150;-75
2022/05/04 06:41:27;;;;;;;45.90;34.90;;;13.60;99.90;;;;;;5098514;28;20054;-75
2022/05/04 06:43:53;;;;;;;41.40;33.45;;;13.50;99.90;;;;;;5098651;28;20081;-75
2022/05/04 06:46:19;;;;;;;43.90;34.30;;;13.50;99.90;;;;;;5097099;28;20051;-76
2022/05/04 06:48:45;;;;;;;60.78;35.00;;;13.60;99.90;;;;;;5080047;28;20024;-75
2022/05/04 06:51:11;;;;;;;47.95;35.08;;;13.60;99.90;;;;;;5080287;28;20020;-75
2022/05/04 06:53:37;;;;;;;43.10;33.00;;;13.60;99.90;;;;;;5077569;28;20063;-76
2022/05/04 06:56:04;;;;;;;44.05;33.15;;;13.50;99.90;;;;;;5079213;28;20020;-75
2022/05/04 06:58:30;;;;;;;44.33;32.53;;;13.50;99.90;;;;;;5078893;28;20030;-75
2022/05/04 07:00:55;;;;;;;43.50;33.33;;;13.50;99.90;;;;;;5079831;28;20063;-76
2022/05/04 07:03:21;;;;;;;42.38;34.47;;;13.50;99.90;;;;;;5079398;28;20353;-75
2022/05/04 07:05:51;;;;;;;44.30;32.78;;;13.60;99.90;;;;;;5082231;28;20031;-75
2022/05/04 07:08:18;;;;;;;54.30;35.83;;;13.60;99.90;;;;;;5077059;28;20095;-76
2022/05/04 07:10:44;;;;;;;44.75;35.60;;;13.60;99.90;;;;;;5074178;28;20017;-76
2022/05/04 07:13:10;;;;;;;51.72;33.47;;;13.60;99.90;;;;;;5079752;28;20380;-76
2022/05/04 07:15:36;;;;;;;39.97;32.35;;;13.70;99.90;;;;;;5080431;28;20070;-75
2022/05/04 07:18:04;;;;;;;49.85;34.03;;;13.70;99.90;;;;;;5096265;28;20016;-75
2022/05/04 07:20:30;;;;;;;40.30;32.60;;;13.70;99.90;;;;;;5084346;28;20108;-75
2022/05/04 07:22:56;;;;;;;48.00;33.67;;;13.80;99.90;;;;;;5078181;28;20141;-75
2022/05/04 07:25:21;;;;;;;40.90;32.10;;;13.80;99.90;;;;;;5080235;28;20636;-75
2022/05/04 07:27:47;;;;;;;45.38;31.75;;;13.90;99.90;;;;;;5091184;28;20024;-75
2022/05/04 07:30:14;;;;;;;45.17;32.53;;;13.90;99.90;;;;;;5096578;28;20028;-75
2022/05/04 07:32:39;;;;;;;37.95;31.80;;;13.90;99.90;;;;;;5075653;28;20442;-75
2022/05/04 07:35:08;;;;;;;45.45;34.50;;;13.90;99.90;;;;;;5078530;28;20025;-75
2022/05/04 07:37:34;;;;;;;45.33;32.17;;;14.00;99.90;;;;;;5081807;28;20070;-75
2022/05/04 07:42:44;;;;;;;49.95;34.00;;;14.00;99.90;;;;;;5094230;28;20514;-75
2022/05/04 07:45:12;;;;;;;47.67;34.17;;;14.10;99.90;;;;;;5096149;28;20051;-75
2022/05/04 07:47:39;;;;;;;38.15;31.40;;;14.20;99.90;;;;;;5097410;28;20053;-75
2022/05/04 07:50:08;;;;;;;44.72;33.20;;;14.30;99.90;;;;;;5089084;28;20047;-75
2022/05/04 07:52:34;;;;;;;40.95;32.75;;;14.40;99.90;;;;;;5080664;28;20024;-75
2022/05/04 07:55:00;;;;;;;44.20;33.38;;;14.40;99.90;;;;;;5090425;28;20055;-75
2022/05/04 07:57:27;;;;;;;39.15;31.02;;;14.40;99.90;;;;;;5093173;28;20016;-75
2022/05/04 08:05:22;;;;;;;42.90;30.65;;;14.30;99.90;;;;;;5090237;28;20035;-75
2022/05/04 08:07:48;;;;;;;41.85;32.08;;;14.20;99.90;;;;;;5077777;28;20020;-77
2022/05/04 08:10:14;;;;;;;44.35;30.05;;;14.20;99.90;;;;;;5070027;28;20389;-76
2022/05/04 08:12:40;;;;;;;44.95;32.00;;;14.20;99.90;;;;;;5076635;28;20050;-77
2022/05/04 08:15:08;;;;;;;49.35;32.40;;;14.30;99.90;;;;;;5075914;28;20104;-77
2022/05/04 08:17:37;;;;;;;38.38;29.77;;;14.30;99.90;;;;;;5082441;28;20622;-77
2022/05/04 08:20:03;;;;;;;44.30;32.63;;;14.30;99.90;;;;;;5082062;28;20035;-75
2022/05/04 08:22:29;;;;;;;52.05;32.38;;;14.40;99.90;;;;;;5097030;28;20028;-75
2022/05/04 08:24:55;;;;;;;43.45;31.48;;;14.40;99.90;;;;;;5085847;28;20039;-75
2022/05/04 08:27:21;;;;;;;45.13;30.63;;;14.30;99.90;;;;;;5089097;28;20096;-75
2022/05/04 08:29:47;;;;;;;43.28;31.58;;;14.30;99.90;;;;;;5083032;28;20491;-75
2022/05/04 08:32:13;;;;;;;44.80;31.00;;;14.40;99.90;;;;;;5090482;28;20111;-75
2022/05/04 08:34:40;;;;;;;46.08;31.70;;;14.40;99.90;;;;;;5087972;28;20048;-75
2022/05/04 08:37:06;;;;;;;47.90;30.52;;;14.30;99.90;;;;;;5100963;28;20031;-75
2022/05/04 08:39:32;;;;;;;43.55;30.13;;;14.30;99.90;;;;;;5080933;28;20107;-75
2022/05/04 08:41:59;;;;;;;43.40;31.70;;;14.20;99.90;;;;;;5090904;28;20060;-75
2022/05/04 08:44:25;;;;;;;44.13;30.52;;;14.20;99.90;;;;;;5099310;28;20020;-75
2022/05/04 08:46:52;;;;;;;45.20;30.90;;;14.30;99.90;;;;;;5099450;28;20034;-75
2022/05/04 08:49:19;;;;;;;49.78;31.33;;;14.20;99.90;;;;;;5099207;28;20504;-75
2022/05/04 08:51:48;;;;;;;42.67;30.80;;;14.30;99.90;;;;;;5100874;28;20032;-75
2022/05/04 08:54:14;;;;;;;48.53;30.95;;;14.40;99.90;;;;;;5092073;28;20031;-75
2022/05/04 08:56:40;;;;;;;41.50;30.15;;;14.40;99.90;;;;;;5078454;28;20021;-75
2022/05/04 08:59:07;;;;;;;45.17;29.80;;;14.40;99.90;;;;;;5086651;28;20020;-75
2022/05/04 09:01:38;;;;;;;49.92;31.15;;;14.40;99.90;;;;;;5081664;28;20028;-75
2022/05/04 09:04:04;;;;;;;51.10;30.58;;;14.30;99.90;;;;;;5077961;28;20031;-75
2022/05/04 09:06:33;;;;;;;43.50;29.85;;;14.40;99.90;;;;;;5075385;28;20135;-75
2022/05/04 09:09:10;;;;;;;41.92;28.55;;;14.40;99.90;;;;;;5081254;28;20038;-75
2022/05/04 09:11:46;;;;;;;44.40;31.83;;;14.50;99.90;;;;;;5080305;28;20476;-75
2022/05/04 09:14:19;;;;;;;40.78;28.60;;;14.60;99.90;;;;;;5086545;28;20020;-75
2022/05/04 09:16:49;;;;;;;40.78;28.50;;;14.60;99.90;;;;;;5079974;28;20016;-75
2022/05/04 09:19:20;;;;;;;43.65;29.58;;;14.60;99.90;;;;;;5079028;28;20024;-76
2022/05/04 09:21:47;;;;;;;48.65;30.70;;;14.80;99.90;;;;;;5084002;28;20454;-75
2022/05/04 09:24:26;;;;;;;36.67;29.58;;;14.80;99.90;;;;;;5085532;28;20039;-77
2022/05/04 09:26:55;;;;;;;40.63;28.05;;;15.00;99.90;;;;;;5080536;28;20020;-76
2022/05/04 09:29:32;;;;;;;38.10;26.70;;;15.20;99.90;;;;;;5080469;28;20024;-74
2022/05/04 09:31:58;;;;;;;38.58;28.95;;;15.30;99.90;;;;;;5078072;28;20039;-75
2022/05/04 09:34:35;;;;;;;40.50;28.02;;;15.30;99.90;;;;;;5074654;28;20547;-76
2022/05/04 09:45:36;;;;;;;38.65;27.48;;;15.80;99.90;;;;;;5099482;28;20521;-74
2022/05/04 09:48:03;;;;;;;38.75;26.17;;;16.10;99.90;;;;;;5091709;28;20116;-74
2022/05/04 09:50:29;;;;;;;33.80;25.73;;;16.30;99.90;;;;;;5077027;28;20056;-74
2022/05/04 09:53:00;;;;;;;52.30;26.35;;;16.40;99.90;;;;;;5090302;28;20063;-74
2022/05/04 09:55:26;;;;;;;;;;;16.80;99.90;;;;;;5103713;28;20035;-75
2022/05/04 09:57:55;;;;;;;35.97;24.00;;;16.40;99.90;;;;;;5098124;28;19904;-74
2022/05/04 10:00:24;;;;;;;38.28;23.30;;;16.70;99.90;;;;;;5097798;28;20020;-74
2022/05/04 10:02:55;;;;;;;34.63;23.30;;;16.80;99.90;;;;;;5099389;28;20024;-74
2022/05/04 10:05:22;;;;;;;43.63;24.50;;;16.80;99.90;;;;;;5091089;28;20025;-74
2022/05/04 10:07:50;;;;;;;26.40;22.52;;;16.90;99.90;;;;;;5098004;28;20024;-74
2022/05/04 10:10:25;;;;;;;33.05;23.38;;;16.70;99.90;;;;;;5098710;28;20043;-74
2022/05/04 10:12:50;;;;;;;35.75;22.83;;;16.70;99.90;;;;;;5099152;28;20051;-74
2022/05/04 10:15:18;;;;;;;34.63;23.65;;;16.60;99.90;;;;;;5093111;28;20017;-74
2022/05/04 10:17:53;;;;;;;33.83;24.15;;;16.50;99.90;;;;;;5088858;28;20078;-74
2022/05/04 10:20:21;;;;;;;39.10;25.40;;;16.50;99.90;;;;;;5079506;28;20020;-74
2022/05/04 10:22:57;;;;;;;36.58;25.05;;;16.30;99.90;;;;;;5091995;28;20534;-74
2022/05/04 10:25:25;;;;;;;33.33;23.80;;;16.30;99.90;;;;;;5097778;28;20034;-75
2022/05/04 10:27:52;;;;;;;32.40;23.75;;;16.20;99.90;;;;;;5093519;28;20031;-74
2022/05/04 10:30:34;;;;;;;34.85;22.20;;;16.20;99.90;;;;;;5085634;28;20031;-74
2022/05/04 10:33:11;;;;;;;33.53;23.70;;;16.00;99.90;;;;;;5077145;28;20032;-74
2022/05/04 10:35:44;;;;;;;37.47;24.80;;;15.80;99.90;;;;;;5090217;28;20020;-74
2022/05/04 10:38:11;;;;;;;34.88;25.02;;;15.60;99.90;;;;;;5096464;28;20028;-75
2022/05/04 10:40:38;;;;;;;36.15;26.23;;;15.70;99.90;;;;;;5097438;28;20387;-75
2022/05/04 10:43:10;;;;;;;35.70;24.13;;;15.80;99.90;;;;;;5098675;28;20039;-75
2022/05/04 10:45:38;;;;;;;33.97;25.05;;;15.90;99.90;;;;;;5098339;28;20036;-74
2022/05/04 10:48:22;;;;;;;41.45;25.10;;;16.00;99.90;;;;;;5098624;28;20028;-74
2022/05/04 10:51:11;;;;;;;44.45;24.85;;;16.00;99.90;;;;;;5091244;28;20039;-74
2022/05/04 10:53:43;;;;;;;43.40;26.35;;;15.80;99.90;;;;;;5096891;28;20027;-75
2022/05/04 10:56:16;;;;;;;38.05;25.40;;;15.60;99.90;;;;;;5078584;28;20036;-75
2022/05/04 10:58:45;;;;;;;40.10;28.67;;;15.60;99.90;;;;;;5080269;28;20012;-75
2022/05/04 11:01:23;;;;;;;46.70;27.27;;;15.50;99.90;;;;;;5097269;28;20031;-74
2022/05/04 11:04:04;;;;;;;43.75;26.83;;;15.60;99.90;;;;;;5098136;28;20035;-75
2022/05/04 11:06:32;;;;;;;36.05;25.48;;;15.60;99.90;;;;;;5098255;28;20108;-75
2022/05/04 11:09:24;;;;;;;37.20;26.08;;;15.60;99.90;;;;;;5098003;28;20031;-74
2022/05/04 11:11:56;;;;;;;38.35;26.77;;;15.70;99.90;;;;;;5097719;28;20794;-74
2022/05/04 11:14:23;;;;;;;36.13;24.95;;;15.90;99.90;;;;;;5098025;28;20016;-75
2022/05/04 11:16:51;;;;;;;41.88;27.02;;;16.10;99.90;;;;;;5084119;28;20024;-74
2022/05/04 11:19:18;;;;;;;38.72;24.80;;;16.40;99.90;;;;;;5097057;28;20055;-74
2022/05/04 11:21:45;;;;;;;38.47;24.40;;;16.60;99.90;;;;;;5096426;28;20024;-74
2022/05/04 11:24:13;;;;;;;38.60;24.98;;;16.70;99.90;;;;;;5097955;28;20031;-74
2022/05/04 11:26:43;;;;;;;35.55;22.23;;;16.90;99.90;;;;;;5096904;28;20028;-75
2022/05/04 11:29:11;;;;;;;37.58;24.58;;;17.00;99.90;;;;;;5077373;28;20032;-75
2022/05/04 11:31:37;;;;;;;40.45;23.38;;;16.90;99.90;;;;;;5078154;28;20035;-74
2022/05/04 11:34:03;;;;;;;42.50;24.90;;;17.00;99.90;;;;;;5089635;28;20118;-74
2022/05/04 11:36:29;;;;;;;35.20;22.67;;;17.30;99.90;;;;;;5097596;28;20048;-75
2022/05/04 11:38:55;;;;;;;40.65;22.95;;;17.40;99.90;;;;;;5096332;28;20051;-74
2022/05/04 11:41:21;;;;;;;33.88;21.10;;;17.50;99.90;;;;;;5097529;28;20024;-75
2022/05/04 11:43:50;;;;;;;32.65;21.05;;;17.70;99.90;;;;;;5085585;28;20092;-74
2022/05/04 11:46:16;;;;;;;28.38;20.02;;;18.00;99.90;;;;;;5069990;28;20686;-75
2022/05/04 11:48:44;;;;;;;36.22;20.00;;;17.90;99.90;;;;;;5074426;28;20547;-74
2022/05/04 11:51:17;;;;;;;30.75;19.30;;;18.00;99.90;;;;;;5078386;28;20023;-74
2022/05/04 11:53:44;;;;;;;29.98;18.38;;;18.20;99.90;;;;;;5077515;28;20024;-75
2022/05/04 11:56:11;;;;;;;25.70;17.58;;;18.00;99.90;;;;;;5077044;28;20484;-75
2022/05/04 11:58:38;;;;;;;24.55;16.55;;;18.10;99.90;;;;;;5079065;28;20023;-75
2022/05/04 12:01:08;;;;;;;30.02;17.63;;;18.30;99.90;;;;;;5078123;28;20528;-75
2022/05/04 12:03:37;;;;;;;28.50;18.42;;;18.70;99.90;;;;;;5075712;28;20020;-74
2022/05/04 12:06:09;;;;;;;23.42;17.05;;;19.20;99.90;;;;;;5075988;28;20024;-74
2022/05/04 12:08:36;;;;;;;25.25;16.38;;;19.10;99.90;;;;;;5079429;28;20109;-74
2022/05/04 12:11:05;;;;;;;22.98;15.57;;;19.10;99.90;;;;;;5076834;28;20021;-75
2022/05/04 12:13:31;;;;;;;23.40;16.58;;;19.60;99.90;;;;;;5078962;28;20024;-75
2022/05/04 12:15:58;;;;;;;25.58;16.10;;;19.50;99.90;;;;;;5075702;28;20066;-76
2022/05/04 12:18:29;;;;;;;23.73;16.42;;;19.40;99.90;;;;;;5077106;28;20023;-75
2022/05/04 12:20:55;;;;;;;;;;;19.10;99.90;;;;;;5077974;28;20029;-74
2022/05/04 12:23:21;;;;;;;27.58;17.67;;;18.90;99.90;;;;;;5080488;28;19904;-74
2022/05/04 12:25:47;;;;;;;22.75;15.60;;;19.00;99.90;;;;;;5076062;28;20476;-74
2022/05/04 12:28:13;;;;;;;24.77;15.70;;;19.20;99.90;;;;;;5070914;28;20063;-74
2022/05/04 12:33:35;;;;;;;23.58;15.07;;;19.50;99.90;;;;;;5078484;28;20393;-74
2022/05/04 12:36:08;;;;;;;22.67;15.10;;;19.80;99.90;;;;;;5080062;28;20048;-74
2022/05/04 12:38:38;;;;;;;29.50;15.48;;;19.70;99.90;;;;;;5073851;28;20065;-74
2022/05/04 12:41:07;;;;;;;19.30;13.30;;;19.70;99.90;;;;;;5077270;28;20020;-73
2022/05/04 12:43:34;;;;;;;24.33;14.00;;;20.20;99.90;;;;;;5075362;28;20021;-74
2022/05/04 12:46:01;;;;;;;24.15;14.15;;;20.50;99.90;;;;;;5077320;28;20040;-74
2022/05/04 12:48:27;;;;;;;24.48;14.30;;;20.60;99.90;;;;;;5078207;28;20388;-74
2022/05/04 12:50:55;;;;;;;20.92;14.07;;;19.80;99.90;;;;;;5079006;28;20870;-74
2022/05/04 12:53:22;;;;;;;22.13;13.05;;;19.70;99.90;;;;;;5076703;28;20028;-73
2022/05/04 12:58:32;;;;;;;20.50;14.38;;;19.70;99.90;;;;;;5077180;28;20119;-75
2022/05/04 13:00:58;;;;;;;23.25;14.90;;;19.60;99.90;;;;;;5069304;28;20103;-74
2022/05/04 13:03:24;;;;;;;24.00;13.52;;;19.40;99.90;;;;;;5077042;28;20031;-73
2022/05/04 13:05:49;;;;;;;20.15;13.48;;;19.40;99.90;;;;;;5080382;28;20388;-75
2022/05/04 13:08:15;;;;;;;18.67;12.55;;;19.30;99.90;;;;;;5075033;28;20020;-76